Mullinville, Kansas
Current Conditions -  °F | °C
As of 12:52 PM on Thursday 23 Oct 2014 (Local Time) from KDDC Reporting Station
Overcast Overcast  
Wind Chill: 67°   Ceiling: 1800
Heat Index: 67°   Visibility: 7mi
Dew Point: 57°   Wind: 7mph
Humidity: 70%   Direction: 150°SSE
Pressure: 30.12"   Gusts: NA
Location:  37.59°N, 99.48°W
Report Text: KDDC 231752Z AUTO 15006KT 7SM OVC018 19/14 A3012 RMK AO2 SLP180 T01940139 10194 20139 50000
Loading
Personal Weather Stations






























Interactive Weather Map
Tropical Storm Tracking
New forecast layout! Learn more

10-Day Weather Forecast

Advertisements
Track Severe Weather on mobile